createdAt,value
2023-11-30T00:00:35.060Z,1.56
2023-11-30T00:03:01.525Z,1.57
2023-11-30T00:05:28.232Z,1.56
2023-11-30T00:07:54.602Z,1.58
2023-11-30T00:10:20.974Z,1.60
2023-11-30T00:12:47.434Z,1.60
2023-11-30T00:15:14.165Z,1.59
2023-11-30T00:17:40.649Z,1.57
2023-11-30T00:20:07.846Z,1.56
2023-11-30T00:22:34.221Z,1.51
2023-11-30T00:25:00.701Z,1.49
2023-11-30T00:27:27.074Z,1.47
2023-11-30T00:29:53.477Z,1.47
2023-11-30T00:32:19.834Z,1.44
2023-11-30T00:34:46.179Z,1.47
2023-11-30T00:37:12.610Z,1.51
2023-11-30T00:39:38.995Z,1.56
2023-11-30T00:42:05.648Z,1.59
2023-11-30T00:44:32.221Z,1.56
2023-11-30T00:46:58.571Z,1.50
2023-11-30T00:49:24.936Z,1.46
2023-11-30T00:51:51.314Z,1.43
2023-11-30T00:54:17.737Z,1.37
2023-11-30T00:56:44.170Z,1.34
2023-11-30T00:59:10.569Z,1.32
2023-11-30T01:01:36.960Z,1.33
2023-11-30T01:04:03.448Z,1.33
2023-11-30T01:06:29.865Z,1.36
2023-11-30T01:08:56.271Z,1.39
2023-11-30T01:11:22.621Z,1.46
2023-11-30T01:13:48.989Z,1.52
2023-11-30T01:16:15.456Z,1.56
2023-11-30T01:18:41.939Z,1.57
2023-11-30T01:21:08.634Z,1.55
2023-11-30T01:23:35.015Z,1.52
2023-11-30T01:26:02.284Z,1.49
2023-11-30T01:28:28.612Z,1.45
2023-11-30T01:30:55.036Z,1.48
2023-11-30T01:33:21.537Z,1.37
2023-11-30T01:35:47.897Z,1.34
2023-11-30T01:38:14.241Z,1.33
2023-11-30T01:40:40.635Z,1.39
2023-11-30T01:43:07.166Z,1.42
2023-11-30T01:45:33.556Z,1.45
2023-11-30T01:48:00.545Z,1.48
2023-11-30T01:50:27.542Z,1.51
2023-11-30T01:52:53.972Z,1.54
2023-11-30T01:55:20.594Z,1.57
2023-11-30T01:57:47.254Z,1.62
2023-11-30T02:00:14.636Z,1.64
2023-11-30T02:02:41.101Z,1.63
2023-11-30T02:05:07.818Z,1.67
2023-11-30T02:07:34.287Z,1.70
2023-11-30T02:10:00.741Z,1.66
2023-11-30T02:12:27.167Z,1.64
2023-11-30T02:14:53.607Z,1.66
2023-11-30T02:17:19.974Z,1.69
2023-11-30T02:19:46.398Z,1.71
2023-11-30T02:22:12.797Z,1.73
2023-11-30T02:24:39.158Z,1.75
2023-11-30T02:27:05.727Z,1.74
2023-11-30T02:29:32.099Z,1.76
2023-11-30T02:31:58.534Z,1.78
2023-11-30T02:34:24.902Z,1.84
2023-11-30T02:36:51.351Z,1.76
2023-11-30T02:39:17.770Z,1.67
2023-11-30T02:41:44.225Z,1.66
2023-11-30T02:44:10.575Z,1.67
2023-11-30T02:46:37.076Z,1.70
2023-11-30T02:49:03.446Z,1.69
2023-11-30T02:51:29.907Z,1.69
2023-11-30T02:53:56.358Z,1.67
2023-11-30T02:56:22.789Z,1.62
2023-11-30T02:58:49.199Z,1.59
2023-11-30T03:01:15.660Z,1.60
2023-11-30T03:03:42.179Z,1.66
2023-11-30T03:06:12.682Z,1.64
2023-11-30T03:08:39.325Z,1.67
2023-11-30T03:11:05.900Z,1.70
2023-11-30T03:13:32.299Z,1.66
2023-11-30T03:15:58.672Z,1.58
2023-11-30T03:18:25.229Z,1.49
2023-11-30T03:20:51.730Z,1.45
2023-11-30T03:23:18.184Z,1.42
2023-11-30T03:25:44.550Z,1.38
2023-11-30T03:28:10.942Z,1.28
2023-11-30T03:30:37.344Z,1.20
2023-11-30T03:33:04.151Z,1.18
2023-11-30T03:35:30.566Z,1.20
2023-11-30T03:37:56.893Z,1.23
2023-11-30T03:40:23.266Z,1.18
2023-11-30T03:42:49.605Z,1.10
2023-11-30T03:45:16.043Z,1.03
2023-11-30T03:47:42.430Z,0.96
2023-11-30T03:50:09.159Z,0.93
2023-11-30T03:52:35.561Z,0.88
2023-11-30T03:55:01.941Z,0.85
2023-11-30T03:57:28.400Z,0.87
2023-11-30T03:59:54.765Z,0.82
2023-11-30T04:02:21.502Z,0.69
2023-11-30T04:04:47.931Z,0.60
2023-11-30T04:07:14.343Z,0.61
2023-11-30T04:09:40.804Z,0.59
2023-11-30T04:12:07.607Z,0.59
2023-11-30T04:14:33.994Z,0.60
2023-11-30T04:17:03.425Z,0.65
2023-11-30T04:19:31.094Z,0.68
2023-11-30T04:21:57.453Z,0.70
2023-11-30T04:24:23.892Z,0.76
2023-11-30T04:26:50.460Z,0.78
2023-11-30T04:29:16.781Z,0.84
2023-11-30T04:31:43.214Z,0.89
2023-11-30T04:34:09.654Z,0.90
2023-11-30T04:36:36.114Z,0.87
2023-11-30T04:39:02.539Z,0.79
2023-11-30T04:41:28.949Z,0.75
2023-11-30T04:43:55.309Z,0.76
2023-11-30T04:46:21.698Z,0.78
2023-11-30T04:48:48.383Z,0.77
2023-11-30T04:51:14.854Z,0.72
2023-11-30T04:53:41.211Z,0.69
2023-11-30T04:56:08.036Z,0.68
2023-11-30T04:58:34.404Z,0.65
2023-11-30T05:01:01.050Z,0.66
2023-11-30T05:03:27.595Z,0.65
2023-11-30T05:05:54.010Z,0.64
2023-11-30T05:08:20.452Z,0.55
2023-11-30T05:10:46.780Z,0.42
2023-11-30T05:13:13.252Z,0.37
2023-11-30T05:15:39.690Z,0.36
2023-11-30T05:18:07.063Z,0.38
2023-11-30T05:20:34.409Z,0.32
2023-11-30T05:23:00.815Z,0.21
2023-11-30T05:25:27.184Z,0.12
2023-11-30T05:27:53.556Z,0.10
2023-11-30T05:30:20.083Z,0.04
2023-11-30T05:32:46.481Z,0.02
2023-11-30T05:35:12.882Z,0.02
2023-11-30T05:37:39.341Z,-0.02
2023-11-30T05:40:06.364Z,-0.06
2023-11-30T05:42:32.722Z,-0.14
2023-11-30T05:44:59.135Z,-0.20
2023-11-30T05:47:25.555Z,-0.22
2023-11-30T05:49:52.436Z,-0.24
2023-11-30T05:52:18.883Z,-0.26
2023-11-30T05:54:45.710Z,-0.29
2023-11-30T05:57:12.269Z,-0.30
2023-11-30T05:59:39.058Z,-0.31
2023-11-30T06:02:05.618Z,-0.27
2023-11-30T06:04:32.934Z,-0.21
2023-11-30T06:06:59.475Z,-0.14
2023-11-30T06:09:25.972Z,-0.09
2023-11-30T06:11:52.384Z,-0.08
2023-11-30T06:14:19.321Z,-0.08
2023-11-30T06:16:46.058Z,-0.09
2023-11-30T06:19:13.581Z,-0.09
2023-11-30T06:21:40.516Z,-0.09
2023-11-30T06:24:07.013Z,-0.09
2023-11-30T06:26:33.596Z,-0.08
2023-11-30T06:29:00.145Z,-0.09
2023-11-30T06:31:26.523Z,-0.12
2023-11-30T06:33:52.964Z,-0.17
2023-11-30T06:36:19.330Z,-0.22
2023-11-30T06:38:45.691Z,-0.25
2023-11-30T06:41:13.672Z,-0.29
2023-11-30T06:43:40.908Z,-0.31
2023-11-30T06:46:08.880Z,-0.34
2023-11-30T06:48:35.766Z,-0.35
2023-11-30T06:51:02.174Z,-0.34
2023-11-30T06:53:28.533Z,-0.36
2023-11-30T06:55:54.908Z,-0.36
2023-11-30T06:58:21.268Z,-0.36
2023-11-30T07:00:47.762Z,-0.41
2023-11-30T07:03:14.344Z,-0.43
2023-11-30T07:05:41.644Z,-0.45
2023-11-30T07:08:07.987Z,-0.50
2023-11-30T07:10:34.417Z,-0.53
2023-11-30T07:13:00.830Z,-0.59
2023-11-30T07:15:27.237Z,-0.61
2023-11-30T07:17:53.629Z,-0.61
2023-11-30T07:20:21.182Z,-0.64
2023-11-30T07:22:47.528Z,-0.64
2023-11-30T07:25:13.877Z,-0.65
2023-11-30T07:27:40.393Z,-0.67
2023-11-30T07:30:10.812Z,-0.64
2023-11-30T07:32:37.783Z,-0.64
2023-11-30T07:35:05.356Z,-0.59
2023-11-30T07:37:31.743Z,-0.56
2023-11-30T07:39:58.099Z,-0.50
2023-11-30T07:42:32.705Z,-0.41
2023-11-30T07:45:04.092Z,-0.31
2023-11-30T07:47:30.746Z,-0.24
2023-11-30T07:49:57.194Z,-0.15
2023-11-30T07:52:23.538Z,-0.09
2023-11-30T07:54:49.920Z,-0.05
2023-11-30T07:57:16.353Z,0.02
2023-11-30T07:59:42.823Z,-0.04
2023-11-30T08:02:09.225Z,0.01
2023-11-30T08:04:38.752Z,0.04
2023-11-30T08:07:05.716Z,0.17
2023-11-30T08:09:32.203Z,0.25
2023-11-30T08:11:58.973Z,0.36
2023-11-30T08:14:25.304Z,0.44
2023-11-30T08:16:51.719Z,0.51
2023-11-30T08:19:18.107Z,0.54
2023-11-30T08:21:44.495Z,0.60
2023-11-30T08:24:14.797Z,0.67
2023-11-30T08:26:41.141Z,0.68
2023-11-30T08:29:08.082Z,0.68
2023-11-30T08:31:34.588Z,0.80
2023-11-30T08:34:02.016Z,0.88
2023-11-30T08:36:28.538Z,0.91
2023-11-30T08:38:54.936Z,0.88
2023-11-30T08:41:21.290Z,0.87
2023-11-30T08:43:50.871Z,0.95
2023-11-30T08:46:17.233Z,1.03
2023-11-30T08:48:45.591Z,1.15
2023-11-30T08:51:12.475Z,1.25
2023-11-30T08:53:38.816Z,1.37
2023-11-30T08:56:06.760Z,1.39
2023-11-30T08:58:33.131Z,1.45
2023-11-30T09:00:59.515Z,1.55
2023-11-30T09:03:25.939Z,1.51
2023-11-30T09:05:52.301Z,1.42
2023-11-30T09:08:21.073Z,1.29
2023-11-30T09:10:47.904Z,1.19
2023-11-30T09:13:14.294Z,1.17
2023-11-30T09:15:40.677Z,1.12
2023-11-30T09:18:07.174Z,1.06
2023-11-30T09:20:34.922Z,1.06
2023-11-30T09:23:01.337Z,1.10
2023-11-30T09:25:27.969Z,1.15
2023-11-30T09:27:55.697Z,1.19
2023-11-30T09:30:22.304Z,1.26
2023-11-30T09:32:51.754Z,1.38
2023-11-30T09:35:18.065Z,1.42
2023-11-30T09:37:44.415Z,1.47
2023-11-30T09:40:11.076Z,1.52
2023-11-30T09:42:39.245Z,1.58
2023-11-30T09:45:06.071Z,1.64
2023-11-30T09:47:32.657Z,1.70
2023-11-30T09:49:59.643Z,1.69
2023-11-30T09:52:26.519Z,1.70
2023-11-30T09:54:52.880Z,1.74
2023-11-30T09:57:19.704Z,1.82
2023-11-30T09:59:46.102Z,1.95
2023-11-30T10:02:12.585Z,1.96
2023-11-30T10:04:40.543Z,1.95
2023-11-30T10:07:06.898Z,1.85
2023-11-30T10:09:34.085Z,1.86
2023-11-30T10:12:02.468Z,1.80
2023-11-30T10:14:28.839Z,1.86
2023-11-30T10:16:56.039Z,1.90
2023-11-30T10:19:22.909Z,2.06
2023-11-30T10:21:50.722Z,2.18
2023-11-30T10:24:17.078Z,2.21
2023-11-30T10:26:43.929Z,2.20
2023-11-30T10:29:17.988Z,2.28
2023-11-30T10:31:47.941Z,2.38
2023-11-30T10:34:21.511Z,2.39
2023-11-30T10:36:47.954Z,2.43
2023-11-30T10:39:14.489Z,2.49
2023-11-30T10:41:50.621Z,2.54
2023-11-30T10:44:22.529Z,2.62
2023-11-30T10:46:52.018Z,2.67
2023-11-30T10:49:19.416Z,2.80
2023-11-30T10:51:45.918Z,2.90
2023-11-30T10:54:24.716Z,3.03
2023-11-30T10:56:52.005Z,3.12
2023-11-30T10:59:18.367Z,3.15
2023-11-30T11:01:45.309Z,3.15
2023-11-30T11:04:16.440Z,3.14
2023-11-30T11:06:43.121Z,3.16
2023-11-30T11:09:10.891Z,3.29
2023-11-30T11:11:42.846Z,3.41
2023-11-30T11:14:09.181Z,3.52
2023-11-30T11:16:38.371Z,3.61
2023-11-30T11:19:05.981Z,3.58
2023-11-30T11:21:39.373Z,3.59
2023-11-30T11:24:08.376Z,3.61
2023-11-30T11:26:48.462Z,3.71
2023-11-30T11:29:21.286Z,3.75
2023-11-30T11:31:53.905Z,3.81
2023-11-30T11:34:20.532Z,3.80
2023-11-30T11:36:46.997Z,3.77
2023-11-30T11:39:13.392Z,3.80
2023-11-30T11:41:41.774Z,3.82
2023-11-30T11:44:08.183Z,3.83
2023-11-30T11:46:34.553Z,3.98
2023-11-30T11:49:00.996Z,4.13
2023-11-30T11:51:29.193Z,4.17
2023-11-30T11:53:55.944Z,4.23
2023-11-30T11:56:23.119Z,4.22
2023-11-30T11:58:51.627Z,4.17
2023-11-30T12:01:18.022Z,4.22
2023-11-30T12:03:50.481Z,4.34
2023-11-30T12:06:28.478Z,4.26
2023-11-30T12:08:54.864Z,4.19
2023-11-30T12:11:21.472Z,4.20
2023-11-30T12:13:54.902Z,4.26
2023-11-30T12:16:21.282Z,4.37
2023-11-30T12:18:47.884Z,4.39
2023-11-30T12:21:14.305Z,4.27
2023-11-30T12:23:41.258Z,4.19
2023-11-30T12:26:07.871Z,4.30
2023-11-30T12:28:34.577Z,4.31
2023-11-30T12:31:01.108Z,4.47
2023-11-30T12:33:27.774Z,4.55
2023-11-30T12:35:54.420Z,4.56
2023-11-30T12:38:20.862Z,4.47
2023-11-30T12:40:47.195Z,4.45
2023-11-30T12:43:13.603Z,4.42
2023-11-30T12:45:40.030Z,4.42
2023-11-30T12:48:06.471Z,4.45
2023-11-30T12:50:34.435Z,4.49
2023-11-30T12:53:01.037Z,4.49
2023-11-30T12:55:27.552Z,4.37
2023-11-30T12:57:54.083Z,4.37
2023-11-30T13:00:20.497Z,4.44
2023-11-30T13:02:47.363Z,4.49
2023-11-30T13:05:14.863Z,4.57
2023-11-30T13:07:41.482Z,4.48
2023-11-30T13:10:12.250Z,4.49
2023-11-30T13:12:39.241Z,4.50
2023-11-30T13:15:06.063Z,4.50
2023-11-30T13:17:32.463Z,4.52
2023-11-30T13:19:58.819Z,4.40
2023-11-30T13:22:25.150Z,4.39
2023-11-30T13:24:51.553Z,4.38
2023-11-30T13:27:17.958Z,4.35
2023-11-30T13:29:44.319Z,4.20
2023-11-30T13:32:13.237Z,4.22
2023-11-30T13:34:39.749Z,4.26
2023-11-30T13:37:06.637Z,4.30
2023-11-30T13:39:33.051Z,4.16
2023-11-30T13:41:59.818Z,4.09
2023-11-30T13:44:26.337Z,4.06
2023-11-30T13:46:53.932Z,4.03
2023-11-30T13:49:20.425Z,3.91
2023-11-30T13:51:47.212Z,3.81
2023-11-30T13:54:15.460Z,3.81
2023-11-30T13:56:41.886Z,3.78
2023-11-30T13:59:08.484Z,3.63
2023-11-30T14:01:35.306Z,3.57
2023-11-30T14:04:01.893Z,3.57
2023-11-30T14:06:28.346Z,3.56
2023-11-30T14:08:54.704Z,3.51
2023-11-30T14:11:21.021Z,3.42
2023-11-30T14:13:47.449Z,3.37
2023-11-30T14:16:13.896Z,3.31
2023-11-30T14:18:40.498Z,3.25
2023-11-30T14:21:07.024Z,3.13
2023-11-30T14:23:33.379Z,3.05
2023-11-30T14:25:59.739Z,2.96
2023-11-30T14:28:26.248Z,2.95
2023-11-30T14:30:53.506Z,2.95
2023-11-30T14:33:19.959Z,2.96
2023-11-30T14:35:49.758Z,2.91
2023-11-30T14:38:16.113Z,2.85
2023-11-30T14:40:42.438Z,2.83
2023-11-30T14:43:08.838Z,2.69
2023-11-30T14:45:35.428Z,2.54
2023-11-30T14:48:01.947Z,2.50
2023-11-30T14:50:28.307Z,2.46
2023-11-30T14:52:54.801Z,2.49
2023-11-30T14:55:21.226Z,2.45
2023-11-30T14:57:47.699Z,2.39
2023-11-30T15:00:14.675Z,2.33
2023-11-30T15:02:41.623Z,2.22
2023-11-30T15:05:08.312Z,2.24
2023-11-30T15:07:34.678Z,2.23
2023-11-30T15:10:01.115Z,2.19
2023-11-30T15:12:27.540Z,2.18
2023-11-30T15:14:53.948Z,2.15
2023-11-30T15:17:20.640Z,2.11
2023-11-30T15:19:46.992Z,2.07
2023-11-30T15:22:13.394Z,2.09
2023-11-30T15:24:40.094Z,2.12
2023-11-30T15:27:06.583Z,2.07
2023-11-30T15:29:32.981Z,2.05
2023-11-30T15:31:59.486Z,2.07
2023-11-30T15:34:25.852Z,2.07
2023-11-30T15:36:52.333Z,2.01
2023-11-30T15:39:18.718Z,1.94
2023-11-30T15:41:46.678Z,1.97
2023-11-30T15:44:13.175Z,2.02
2023-11-30T15:46:44.535Z,2.01
2023-11-30T15:49:11.134Z,1.98
2023-11-30T15:51:41.009Z,1.91
2023-11-30T15:54:07.414Z,1.89
2023-11-30T15:56:33.998Z,1.83
2023-11-30T15:59:00.843Z,1.87
2023-11-30T16:01:27.396Z,1.90
2023-11-30T16:03:56.640Z,1.90
2023-11-30T16:06:27.159Z,1.90
2023-11-30T16:08:53.558Z,1.91
2023-11-30T16:11:20.152Z,1.87
2023-11-30T16:13:46.579Z,1.84
2023-11-30T16:16:13.101Z,1.82
2023-11-30T16:18:40.726Z,1.78
2023-11-30T16:21:14.145Z,1.75
2023-11-30T16:23:40.601Z,1.77
2023-11-30T16:26:07.105Z,1.78
2023-11-30T16:28:33.519Z,1.83
2023-11-30T16:30:59.953Z,1.87
2023-11-30T16:33:28.129Z,1.87
2023-11-30T16:35:55.127Z,1.83
2023-11-30T16:38:21.560Z,1.81
2023-11-30T16:40:47.898Z,1.84
2023-11-30T16:43:14.254Z,1.83
2023-11-30T16:45:40.623Z,1.85
2023-11-30T16:48:07.152Z,1.83
2023-11-30T16:50:33.493Z,1.79
2023-11-30T16:52:59.908Z,1.75
2023-11-30T16:55:26.324Z,1.75
2023-11-30T16:57:52.801Z,1.78
2023-11-30T17:00:19.499Z,1.82
2023-11-30T17:02:46.135Z,1.85
2023-11-30T17:05:12.574Z,1.89
2023-11-30T17:07:39.401Z,1.93
2023-11-30T17:10:06.176Z,1.94
2023-11-30T17:12:32.608Z,1.90
2023-11-30T17:15:00.399Z,1.92
2023-11-30T17:17:26.753Z,1.99
2023-11-30T17:19:53.108Z,2.01
2023-11-30T17:22:19.493Z,2.04
2023-11-30T17:24:45.880Z,2.07
2023-11-30T17:27:13.452Z,2.11
2023-11-30T17:29:39.820Z,2.10
2023-11-30T17:32:10.124Z,2.04
2023-11-30T17:34:37.520Z,2.00
2023-11-30T17:37:04.143Z,2.01
2023-11-30T17:39:30.808Z,2.02
2023-11-30T17:41:57.597Z,2.00
2023-11-30T17:44:23.995Z,2.00
2023-11-30T17:46:50.371Z,1.99
2023-11-30T17:49:17.416Z,2.00
2023-11-30T17:51:43.779Z,2.03
2023-11-30T17:54:10.264Z,2.02
2023-11-30T17:56:36.619Z,1.98
2023-11-30T17:59:02.985Z,1.89
2023-11-30T18:01:29.438Z,1.85
2023-11-30T18:03:55.912Z,1.77
2023-11-30T18:06:22.463Z,1.77
2023-11-30T18:08:48.911Z,1.79
2023-11-30T18:11:15.265Z,1.69
2023-11-30T18:13:41.637Z,1.72
2023-11-30T18:16:08.751Z,1.68
2023-11-30T18:18:35.190Z,1.68
2023-11-30T18:21:01.617Z,1.71
2023-11-30T18:23:28.277Z,1.71
2023-11-30T18:25:54.622Z,1.75
2023-11-30T18:28:21.117Z,1.81
2023-11-30T18:30:47.630Z,1.82
2023-11-30T18:33:14.172Z,1.82
2023-11-30T18:35:40.604Z,1.88
2023-11-30T18:38:07.798Z,1.89
2023-11-30T18:40:34.681Z,1.89
2023-11-30T18:43:01.134Z,1.88
2023-11-30T18:45:27.594Z,1.87
2023-11-30T18:47:54.003Z,1.88
2023-11-30T18:50:20.422Z,1.85
2023-11-30T18:52:47.194Z,1.82
2023-11-30T18:55:13.841Z,1.74
2023-11-30T18:57:40.337Z,1.71
2023-11-30T19:00:08.662Z,1.68
2023-11-30T19:02:35.382Z,1.63
2023-11-30T19:05:01.835Z,1.65
2023-11-30T19:07:29.479Z,1.68
2023-11-30T19:09:57.083Z,1.72
2023-11-30T19:12:23.545Z,1.70
2023-11-30T19:14:49.943Z,1.68
2023-11-30T19:17:16.438Z,1.66
2023-11-30T19:19:42.803Z,1.62
2023-11-30T19:22:09.130Z,1.58
2023-11-30T19:24:35.759Z,1.60
2023-11-30T19:27:02.139Z,1.65
2023-11-30T19:29:28.554Z,1.72
2023-11-30T19:31:54.998Z,1.72
2023-11-30T19:34:21.855Z,1.75
2023-11-30T19:36:48.205Z,1.76
2023-11-30T19:39:14.672Z,1.81
2023-11-30T19:41:43.020Z,1.88
2023-11-30T19:44:10.149Z,1.90
2023-11-30T19:46:36.500Z,1.91
2023-11-30T19:49:02.953Z,1.87
2023-11-30T19:51:29.379Z,1.87
2023-11-30T19:53:55.809Z,1.84
2023-11-30T19:56:22.305Z,1.83
2023-11-30T19:58:48.710Z,1.90
2023-11-30T20:01:21.312Z,1.97
2023-11-30T20:03:48.072Z,2.01
2023-11-30T20:06:15.399Z,2.07
2023-11-30T20:08:41.930Z,2.09
2023-11-30T20:11:08.636Z,2.11
2023-11-30T20:13:34.982Z,2.15
2023-11-30T20:16:01.418Z,2.19
2023-11-30T20:18:28.431Z,2.21
2023-11-30T20:20:54.828Z,2.22
2023-11-30T20:23:21.207Z,2.15
2023-11-30T20:25:47.808Z,2.11
2023-11-30T20:28:14.142Z,2.10
2023-11-30T20:30:40.588Z,2.09
2023-11-30T20:33:07.093Z,2.04
2023-11-30T20:35:33.482Z,2.02
2023-11-30T20:38:01.079Z,1.99
2023-11-30T20:40:27.443Z,1.92
2023-11-30T20:42:54.149Z,1.90
2023-11-30T20:45:20.557Z,1.92
2023-11-30T20:47:46.959Z,1.89
2023-11-30T20:50:13.424Z,1.85
2023-11-30T20:52:39.773Z,1.87
2023-11-30T20:55:06.623Z,1.83
2023-11-30T20:57:33.069Z,1.78
2023-11-30T20:59:59.433Z,1.78
2023-11-30T21:02:25.910Z,1.85
2023-11-30T21:04:52.290Z,1.91
2023-11-30T21:07:18.775Z,1.94
2023-11-30T21:09:45.221Z,1.97
2023-11-30T21:12:14.042Z,2.00
2023-11-30T21:14:41.952Z,1.97
2023-11-30T21:17:08.381Z,1.95
2023-11-30T21:19:34.800Z,1.99
2023-11-30T21:22:01.308Z,2.01
2023-11-30T21:24:27.790Z,2.00
2023-11-30T21:26:54.135Z,2.01
2023-11-30T21:29:20.469Z,2.04
2023-11-30T21:31:46.961Z,2.08
2023-11-30T21:34:13.949Z,2.08
2023-11-30T21:36:40.634Z,2.10
2023-11-30T21:39:07.678Z,2.14
2023-11-30T21:41:34.019Z,2.14
2023-11-30T21:44:00.443Z,2.10
2023-11-30T21:46:26.786Z,2.09
2023-11-30T21:48:53.394Z,2.13
2023-11-30T21:51:19.767Z,2.09
2023-11-30T21:53:47.450Z,2.01
2023-11-30T21:56:13.784Z,2.05
2023-11-30T21:58:40.457Z,2.06
2023-11-30T22:01:07.455Z,2.06
2023-11-30T22:03:36.151Z,2.01
2023-11-30T22:06:02.685Z,2.01
2023-11-30T22:08:29.294Z,2.05
2023-11-30T22:10:55.779Z,2.09
2023-11-30T22:13:22.442Z,2.16
2023-11-30T22:15:55.263Z,2.20
2023-11-30T22:18:28.392Z,2.20
2023-11-30T22:20:54.764Z,2.23
2023-11-30T22:23:21.096Z,2.22
2023-11-30T22:25:53.332Z,2.21
2023-11-30T22:28:22.503Z,2.22
2023-11-30T22:30:49.017Z,2.23
2023-11-30T22:33:15.373Z,2.23
2023-11-30T22:35:41.743Z,2.18
2023-11-30T22:38:09.280Z,2.14
2023-11-30T22:40:35.604Z,2.09
2023-11-30T22:43:01.981Z,2.03
2023-11-30T22:45:28.427Z,1.97
2023-11-30T22:47:54.866Z,2.00
2023-11-30T22:50:21.295Z,2.04
2023-11-30T22:52:47.809Z,2.08
2023-11-30T22:55:14.375Z,2.11
2023-11-30T22:57:40.865Z,2.12
2023-11-30T23:00:09.506Z,2.07
2023-11-30T23:02:36.158Z,2.04
2023-11-30T23:05:02.768Z,2.03
2023-11-30T23:07:29.288Z,2.03
2023-11-30T23:09:55.673Z,2.01
2023-11-30T23:12:22.146Z,2.01
2023-11-30T23:14:48.521Z,2.06
2023-11-30T23:17:14.863Z,2.08
2023-11-30T23:19:41.273Z,2.11
2023-11-30T23:22:07.683Z,2.14
2023-11-30T23:24:34.088Z,2.12
2023-11-30T23:27:00.556Z,2.13
2023-11-30T23:29:26.920Z,2.15
2023-11-30T23:31:54.159Z,2.17
2023-11-30T23:34:20.593Z,2.14
2023-11-30T23:36:47.021Z,2.18
2023-11-30T23:39:13.362Z,2.22
2023-11-30T23:41:39.738Z,2.24
2023-11-30T23:44:06.122Z,2.24
2023-11-30T23:46:32.613Z,2.22
2023-11-30T23:48:59.134Z,2.21
2023-11-30T23:51:25.744Z,2.22
2023-11-30T23:53:52.167Z,2.21
2023-11-30T23:56:18.555Z,2.23
2023-11-30T23:58:45.086Z,2.22
